createdAt,value
2018-07-07T04:00:54.927Z,112.50
2018-07-07T04:01:54.801Z,112.50
2018-07-07T04:03:47.507Z,118.13
2018-07-07T04:04:47.385Z,123.75
2018-07-07T04:06:40.054Z,129.38
2018-07-07T04:07:39.956Z,135.00
2018-07-07T04:09:32.648Z,140.63
2018-07-07T04:10:32.521Z,146.25
2018-07-07T04:12:25.202Z,151.88
2018-07-07T04:13:25.104Z,157.50
2018-07-07T04:15:17.797Z,163.13
2018-07-07T04:16:17.669Z,163.13
2018-07-07T04:18:10.354Z,174.38
2018-07-07T04:19:10.249Z,174.38
2018-07-07T04:21:02.947Z,180.00
2018-07-07T04:22:02.819Z,185.63
2018-07-07T04:23:55.503Z,191.25
2018-07-07T04:24:55.396Z,196.88
2018-07-07T04:26:48.095Z,202.50
2018-07-07T04:27:47.972Z,202.50
2018-07-07T04:29:40.667Z,208.13
2018-07-07T04:30:40.578Z,208.13
2018-07-07T04:32:33.225Z,225.00
2018-07-07T04:33:33.125Z,230.63
2018-07-07T04:35:25.823Z,236.25
2018-07-07T04:36:25.698Z,241.88
2018-07-07T04:38:18.373Z,247.50
2018-07-07T04:39:18.266Z,253.13
2018-07-07T04:41:11.114Z,264.38
2018-07-07T04:42:10.840Z,270.00
2018-07-07T04:44:03.518Z,275.63
2018-07-07T04:45:03.417Z,275.63
2018-07-07T04:46:56.116Z,281.25
2018-07-07T04:47:55.993Z,281.25
2018-07-07T04:49:48.672Z,281.25
2018-07-07T04:50:48.562Z,286.88
2018-07-07T04:52:41.271Z,292.50
2018-07-07T04:53:41.142Z,298.13
2018-07-07T04:55:33.843Z,303.75
2018-07-07T04:56:33.719Z,303.75
2018-07-07T04:58:26.397Z,315.00
2018-07-07T04:59:26.290Z,315.00
2018-07-07T05:01:18.986Z,320.63
2018-07-07T05:02:18.864Z,326.25
2018-07-07T05:04:11.536Z,337.50
2018-07-07T05:05:11.436Z,337.50
2018-07-07T05:07:04.133Z,343.13
2018-07-07T05:08:04.002Z,348.75
2018-07-07T05:09:56.682Z,354.38
2018-07-07T05:10:56.580Z,354.38
2018-07-07T05:12:49.276Z,354.38
2018-07-07T05:13:49.149Z,360.00
2018-07-07T05:15:41.831Z,365.63
2018-07-07T05:16:41.724Z,365.63
2018-07-07T05:18:34.422Z,376.88
2018-07-07T05:19:34.298Z,376.88
2018-07-07T05:21:26.999Z,382.50
2018-07-07T05:22:26.874Z,382.50
2018-07-07T05:24:19.552Z,388.13
2018-07-07T05:25:19.446Z,393.75
2018-07-07T05:27:12.147Z,399.38
2018-07-07T05:28:12.029Z,399.38
2018-07-07T05:30:04.712Z,405.00
2018-07-07T05:31:04.609Z,405.00
2018-07-07T05:32:57.316Z,416.25
2018-07-07T05:33:57.182Z,421.88
2018-07-07T05:35:49.895Z,433.13
2018-07-07T05:36:49.761Z,438.75
2018-07-07T05:38:42.461Z,444.38
2018-07-07T05:39:42.343Z,444.38
2018-07-07T05:41:35.030Z,450.00
2018-07-07T05:42:34.925Z,455.63
2018-07-07T05:44:27.622Z,450.00
2018-07-07T05:45:27.504Z,450.00
2018-07-07T05:47:20.200Z,461.25
2018-07-07T05:48:20.076Z,466.88
2018-07-07T05:50:12.754Z,472.50
2018-07-07T05:51:12.650Z,472.50
2018-07-07T05:53:05.354Z,489.38
2018-07-07T05:54:05.230Z,495.00
2018-07-07T05:55:57.913Z,506.25
2018-07-07T05:56:57.807Z,511.88
2018-07-07T05:58:50.509Z,523.13
2018-07-07T05:59:50.394Z,528.75
2018-07-07T06:01:43.076Z,528.75
2018-07-07T06:02:42.974Z,528.75
2018-07-07T06:04:35.683Z,534.38
2018-07-07T06:05:35.559Z,545.63
2018-07-07T06:07:28.271Z,562.50
2018-07-07T06:08:28.135Z,568.13
2018-07-07T06:10:20.819Z,579.38
2018-07-07T06:11:20.715Z,585.00
2018-07-07T06:13:13.415Z,607.50
2018-07-07T06:14:13.297Z,618.75
2018-07-07T06:16:06.006Z,658.13
2018-07-07T06:17:05.910Z,714.38
2018-07-07T06:18:58.603Z,1226.25
2018-07-07T06:19:58.478Z,2025.00
2018-07-07T06:21:51.165Z,2683.13
2018-07-07T06:22:51.066Z,2733.75
2018-07-07T06:24:43.771Z,2812.50
2018-07-07T06:25:43.654Z,2846.25
2018-07-07T06:27:36.345Z,2908.13
2018-07-07T06:28:36.247Z,2958.75
2018-07-07T06:30:28.967Z,2958.75
2018-07-07T06:31:28.858Z,2891.25
2018-07-07T06:33:21.551Z,3026.25
2018-07-07T06:34:21.458Z,3121.88
2018-07-07T06:36:14.177Z,3155.63
2018-07-07T06:37:14.109Z,3054.38
2018-07-07T06:39:06.771Z,3189.38
2018-07-07T06:40:06.678Z,3082.50
2018-07-07T06:41:59.403Z,3245.63
2018-07-07T06:42:59.291Z,3363.75
2018-07-07T06:44:52.018Z,3431.25
2018-07-07T06:45:51.910Z,3228.75
2018-07-07T06:47:44.616Z,3279.38
2018-07-07T06:48:44.534Z,3403.13
2018-07-07T06:50:37.263Z,2857.50
2018-07-07T06:51:37.155Z,2503.13
2018-07-07T06:53:29.864Z,2846.25
2018-07-07T06:54:29.780Z,3093.75
2018-07-07T06:56:22.517Z,2711.25
2018-07-07T06:57:22.398Z,2542.50
2018-07-07T06:59:15.168Z,2148.75
2018-07-07T07:00:15.041Z,2593.13
2018-07-07T07:02:07.753Z,3082.50
2018-07-07T07:03:07.664Z,2818.13
2018-07-07T07:05:00.384Z,3661.88
2018-07-07T07:06:00.279Z,2311.88
2018-07-07T07:07:52.988Z,3363.75
2018-07-07T07:08:52.897Z,3864.38
2018-07-07T07:10:45.618Z,3690.00
2018-07-07T07:11:45.517Z,3976.88
2018-07-07T07:13:38.224Z,4021.88
2018-07-07T07:14:38.131Z,3060.00
2018-07-07T07:16:30.858Z,3830.63
2018-07-07T07:17:30.752Z,3667.50
2018-07-07T07:19:23.468Z,3526.88
2018-07-07T07:20:23.381Z,3133.13
2018-07-07T07:22:16.110Z,3183.75
2018-07-07T07:23:16.005Z,3375.00
2018-07-07T07:25:08.711Z,3048.75
2018-07-07T07:26:08.732Z,3622.50
2018-07-07T07:28:01.359Z,2936.25
2018-07-07T07:29:01.252Z,2025.00
2018-07-07T07:30:53.963Z,3864.38
2018-07-07T07:31:53.866Z,2598.75
2018-07-07T07:33:46.595Z,3341.25
2018-07-07T07:34:46.484Z,2581.88
2018-07-07T07:36:39.235Z,2086.88
2018-07-07T07:37:39.101Z,3960.00
2018-07-07T07:39:31.812Z,3718.13
2018-07-07T07:40:31.719Z,3751.88
2018-07-07T07:42:24.447Z,3690.00
2018-07-07T07:43:24.337Z,4314.38
2018-07-07T07:45:17.044Z,4471.88
2018-07-07T07:46:16.955Z,4635.00
2018-07-07T07:48:09.691Z,4640.63
2018-07-07T07:49:09.590Z,4567.50
2018-07-07T07:51:02.437Z,4286.25
2018-07-07T07:52:02.213Z,4207.50
2018-07-07T07:53:54.939Z,4185.00
2018-07-07T07:54:54.841Z,4145.63
2018-07-07T07:56:47.553Z,4325.63
2018-07-07T07:57:47.472Z,4528.13
2018-07-07T07:59:40.203Z,4488.75
2018-07-07T08:00:40.099Z,4556.25
2018-07-07T08:02:32.846Z,4854.38
2018-07-07T08:03:32.733Z,4719.38
2018-07-07T08:05:25.446Z,4365.00
2018-07-07T08:06:25.363Z,4246.88
2018-07-07T08:08:18.110Z,4556.25
2018-07-07T08:09:17.992Z,4336.88
2018-07-07T08:11:10.715Z,4545.00
2018-07-07T08:12:10.627Z,4770.00
2018-07-07T08:14:03.401Z,4426.88
2018-07-07T08:15:03.264Z,4595.63
2018-07-07T08:16:56.618Z,4308.75
2018-07-07T08:17:55.893Z,4545.00
2018-07-07T08:19:48.634Z,4387.50
2018-07-07T08:20:48.530Z,4325.63
2018-07-07T08:22:41.276Z,4488.75
2018-07-07T08:23:41.159Z,4691.25
2018-07-07T08:25:33.895Z,4398.75
2018-07-07T08:26:33.790Z,4314.38
2018-07-07T08:28:26.556Z,4421.25
2018-07-07T08:29:26.428Z,4612.50
2018-07-07T08:31:19.162Z,4398.75
2018-07-07T08:32:19.061Z,4483.13
2018-07-07T08:34:11.773Z,4635.00
2018-07-07T08:35:11.694Z,4449.38
2018-07-07T08:37:04.425Z,4432.50
2018-07-07T08:38:04.328Z,4505.63
2018-07-07T08:39:57.042Z,4365.00
2018-07-07T08:40:56.958Z,4421.25
2018-07-07T08:42:49.704Z,3999.38
2018-07-07T08:43:49.603Z,4196.25
2018-07-07T08:45:42.343Z,4342.50
2018-07-07T08:46:42.224Z,4089.38
2018-07-07T08:48:35.629Z,3161.25
2018-07-07T08:49:34.859Z,1991.25
2018-07-07T08:51:27.596Z,1136.25
2018-07-07T08:52:27.495Z,990.00
2018-07-07T08:54:20.210Z,866.25
2018-07-07T08:55:20.119Z,826.88
2018-07-07T08:57:12.860Z,810.00
2018-07-07T08:58:12.749Z,883.13
2018-07-07T09:00:05.454Z,1006.88
2018-07-07T09:01:05.363Z,984.38
2018-07-07T09:02:58.094Z,810.00
2018-07-07T09:03:57.981Z,804.38
2018-07-07T09:05:50.686Z,708.75
2018-07-07T09:06:50.598Z,725.63
2018-07-07T09:08:43.321Z,731.25
2018-07-07T09:09:43.211Z,725.63
2018-07-07T09:11:35.928Z,680.63
2018-07-07T09:12:35.814Z,658.13
2018-07-07T09:14:28.521Z,590.63
2018-07-07T09:15:28.423Z,601.88
2018-07-07T09:17:21.140Z,590.63
2018-07-07T09:18:21.020Z,590.63
2018-07-07T09:20:13.717Z,613.13
2018-07-07T09:21:13.674Z,618.75
2018-07-07T09:23:06.339Z,635.63
2018-07-07T09:24:06.224Z,568.13
2018-07-07T09:25:58.922Z,590.63
2018-07-07T09:26:58.829Z,579.38
2018-07-07T09:28:51.530Z,568.13
2018-07-07T09:29:51.419Z,568.13
2018-07-07T09:31:44.116Z,556.88
2018-07-07T09:32:44.016Z,545.63
2018-07-07T09:34:36.728Z,545.63
2018-07-07T09:35:36.612Z,540.00
2018-07-07T09:37:29.322Z,534.38
2018-07-07T09:38:29.212Z,523.13
2018-07-07T09:40:21.901Z,523.13
2018-07-07T09:41:21.796Z,523.13
2018-07-07T09:43:14.506Z,528.75
2018-07-07T09:44:14.411Z,523.13
2018-07-07T09:46:07.087Z,511.88
2018-07-07T09:47:06.981Z,506.25
2018-07-07T09:48:59.702Z,495.00
2018-07-07T09:49:59.580Z,489.38
2018-07-07T09:51:52.274Z,483.75
2018-07-07T09:52:52.176Z,483.75
2018-07-07T09:54:44.890Z,483.75
2018-07-07T09:55:44.764Z,478.13
2018-07-07T09:57:37.459Z,478.13
2018-07-07T09:58:37.364Z,478.13
2018-07-07T10:00:30.072Z,478.13
2018-07-07T10:01:29.952Z,483.75
2018-07-07T10:03:22.645Z,506.25
2018-07-07T10:04:22.548Z,500.63
2018-07-07T10:06:15.260Z,500.63
2018-07-07T10:07:15.141Z,489.38
2018-07-07T10:09:07.835Z,489.38
2018-07-07T10:10:07.735Z,495.00
2018-07-07T10:12:00.444Z,495.00
2018-07-07T10:13:00.323Z,489.38
2018-07-07T10:14:53.032Z,483.75
2018-07-07T10:15:52.917Z,489.38
2018-07-07T10:17:45.612Z,478.13
2018-07-07T10:18:45.515Z,472.50
2018-07-07T10:20:38.271Z,466.88
2018-07-07T10:21:38.106Z,466.88
2018-07-07T10:23:30.803Z,466.88
2018-07-07T10:24:30.703Z,461.25
2018-07-07T10:26:23.506Z,461.25
2018-07-07T10:27:23.297Z,455.63
2018-07-07T10:29:15.985Z,455.63
2018-07-07T10:30:15.888Z,455.63
2018-07-07T10:32:08.600Z,461.25
2018-07-07T10:33:08.482Z,461.25
2018-07-07T10:35:01.177Z,461.25
2018-07-07T10:36:01.076Z,466.88
2018-07-07T10:37:53.777Z,466.88
2018-07-07T10:38:53.663Z,466.88
2018-07-07T10:40:46.378Z,466.88
2018-07-07T10:41:46.256Z,466.88
2018-07-07T10:43:38.952Z,461.25
2018-07-07T10:44:38.859Z,461.25
2018-07-07T10:46:31.564Z,455.63
2018-07-07T10:47:31.510Z,455.63
2018-07-07T10:49:24.142Z,455.63
2018-07-07T10:50:24.051Z,455.63
2018-07-07T10:52:16.753Z,450.00
2018-07-07T10:53:16.636Z,444.38
2018-07-07T10:55:09.331Z,444.38
2018-07-07T10:56:09.227Z,438.75
2018-07-07T10:58:01.936Z,444.38
2018-07-07T10:59:01.820Z,450.00
2018-07-07T11:00:54.512Z,450.00
2018-07-07T11:01:54.409Z,444.38
2018-07-07T11:03:47.123Z,433.13
2018-07-07T11:04:46.999Z,427.50
2018-07-07T11:06:39.692Z,427.50
2018-07-07T11:07:39.593Z,421.88
2018-07-07T11:09:32.303Z,416.25
2018-07-07T11:10:32.193Z,421.88
2018-07-07T11:12:24.881Z,433.13
2018-07-07T11:13:24.785Z,433.13
2018-07-07T11:15:17.497Z,427.50
2018-07-07T11:16:17.383Z,421.88
2018-07-07T11:18:10.074Z,433.13
2018-07-07T11:19:09.975Z,433.13
2018-07-07T11:21:02.685Z,433.13
2018-07-07T11:22:02.570Z,427.50
2018-07-07T11:23:55.262Z,427.50
2018-07-07T11:24:55.169Z,433.13
2018-07-07T11:26:47.872Z,427.50
2018-07-07T11:27:47.756Z,427.50
2018-07-07T11:29:40.478Z,421.88
2018-07-07T11:30:40.369Z,433.13
2018-07-07T11:32:33.044Z,438.75
2018-07-07T11:33:32.947Z,438.75
2018-07-07T11:35:25.801Z,450.00
2018-07-07T11:36:25.614Z,444.38
2018-07-07T11:38:18.228Z,444.38
2018-07-07T11:39:18.130Z,444.38
2018-07-07T11:41:10.846Z,433.13
2018-07-07T11:42:10.781Z,438.75
2018-07-07T11:44:03.420Z,438.75
2018-07-07T11:45:03.312Z,438.75
2018-07-07T11:46:56.028Z,438.75
2018-07-07T11:47:55.909Z,421.88
2018-07-07T11:49:48.598Z,405.00
2018-07-07T11:50:48.504Z,421.88
2018-07-07T11:52:41.207Z,427.50
2018-07-07T11:53:41.092Z,427.50
2018-07-07T11:55:33.777Z,444.38
2018-07-07T11:56:33.683Z,444.38
2018-07-07T11:58:26.393Z,433.13
2018-07-07T11:59:26.280Z,433.13
2018-07-07T12:01:18.973Z,427.50
2018-07-07T12:02:18.879Z,421.88
2018-07-07T12:04:11.591Z,405.00
2018-07-07T12:05:11.475Z,421.88
2018-07-07T12:07:04.164Z,421.88
2018-07-07T12:08:13.872Z,421.88
2018-07-07T12:09:56.780Z,427.50
2018-07-07T12:10:56.658Z,427.50
2018-07-07T12:12:49.356Z,427.50
2018-07-07T12:13:49.254Z,433.13
2018-07-07T12:15:41.969Z,433.13
2018-07-07T12:16:41.856Z,438.75
2018-07-07T12:18:34.548Z,433.13
2018-07-07T12:19:34.449Z,416.25
2018-07-07T12:21:27.165Z,416.25
2018-07-07T12:22:27.047Z,399.38
2018-07-07T12:24:19.739Z,416.25
2018-07-07T12:25:19.641Z,433.13
2018-07-07T12:27:12.358Z,438.75
2018-07-07T12:28:12.243Z,450.00
2018-07-07T12:30:04.937Z,461.25
2018-07-07T12:31:04.838Z,466.88
2018-07-07T12:32:57.542Z,466.88
2018-07-07T12:33:57.427Z,450.00
2018-07-07T12:35:50.151Z,455.63
2018-07-07T12:36:50.027Z,455.63
2018-07-07T12:38:42.720Z,438.75
2018-07-07T12:39:42.625Z,427.50
2018-07-07T12:41:35.334Z,427.50
2018-07-07T12:42:35.218Z,410.63
2018-07-07T12:44:27.915Z,421.88
2018-07-07T12:45:27.810Z,405.00
2018-07-07T12:47:20.525Z,433.13
2018-07-07T12:48:20.403Z,433.13
2018-07-07T12:50:13.097Z,438.75
2018-07-07T12:51:13.017Z,433.13
2018-07-07T12:53:05.712Z,444.38
2018-07-07T12:54:05.594Z,438.75
2018-07-07T12:55:58.294Z,455.63
2018-07-07T12:56:58.198Z,450.00
2018-07-07T12:58:50.910Z,438.75
2018-07-07T12:59:50.797Z,388.13
2018-07-07T13:01:43.492Z,427.50
2018-07-07T13:02:43.394Z,421.88
2018-07-07T13:04:36.103Z,416.25
2018-07-07T13:05:35.983Z,410.63
2018-07-07T13:07:28.675Z,427.50
2018-07-07T13:08:28.580Z,433.13
2018-07-07T13:10:21.290Z,438.75
2018-07-07T13:11:21.185Z,438.75
2018-07-07T13:13:13.873Z,438.75
2018-07-07T13:14:13.776Z,433.13
2018-07-07T13:16:06.504Z,433.13
2018-07-07T13:17:06.373Z,433.13
2018-07-07T13:18:59.070Z,433.13
2018-07-07T13:19:58.965Z,433.13
2018-07-07T13:21:51.679Z,444.38
2018-07-07T13:22:51.558Z,455.63
2018-07-07T13:24:44.249Z,483.75
2018-07-07T13:25:44.156Z,506.25
2018-07-07T13:27:36.860Z,523.13
2018-07-07T13:28:36.746Z,523.13
2018-07-07T13:30:29.461Z,534.38
2018-07-07T13:31:29.346Z,540.00
2018-07-07T13:33:22.090Z,545.63
2018-07-07T13:34:21.943Z,545.63
2018-07-07T13:36:14.660Z,523.13
2018-07-07T13:37:14.537Z,506.25
2018-07-07T13:39:07.231Z,500.63
2018-07-07T13:40:07.135Z,483.75
2018-07-07T13:41:59.846Z,444.38
2018-07-07T13:42:59.736Z,433.13
2018-07-07T13:44:52.427Z,421.88
2018-07-07T13:45:52.331Z,421.88
2018-07-07T13:47:45.040Z,450.00
2018-07-07T13:48:44.931Z,472.50
2018-07-07T13:50:37.624Z,450.00
2018-07-07T13:51:37.530Z,450.00
2018-07-07T13:53:30.235Z,421.88
2018-07-07T13:54:30.126Z,416.25
2018-07-07T13:56:22.818Z,416.25
2018-07-07T13:57:22.724Z,416.25
2018-07-07T13:59:15.442Z,416.25
2018-07-07T14:00:15.317Z,416.25
2018-07-07T14:02:08.010Z,433.13
2018-07-07T14:03:07.913Z,450.00
2018-07-07T14:05:00.625Z,478.13
2018-07-07T14:06:00.517Z,483.75
2018-07-07T14:07:53.201Z,506.25
2018-07-07T14:08:53.104Z,528.75
2018-07-07T14:10:45.820Z,556.88
2018-07-07T14:11:45.787Z,579.38
2018-07-07T14:13:38.401Z,601.88
2018-07-07T14:14:38.310Z,568.13
2018-07-07T14:16:31.016Z,517.50
2018-07-07T14:17:30.973Z,483.75
2018-07-07T14:19:23.620Z,450.00
2018-07-07T14:20:23.494Z,450.00
2018-07-07T14:22:16.191Z,421.88
2018-07-07T14:23:16.091Z,405.00
2018-07-07T14:25:08.801Z,410.63
2018-07-07T14:26:08.686Z,433.13
2018-07-07T14:28:01.379Z,472.50
2018-07-07T14:29:01.282Z,472.50
2018-07-07T14:30:53.996Z,472.50
2018-07-07T14:31:53.953Z,461.25
2018-07-07T14:33:46.571Z,427.50
2018-07-07T14:34:46.471Z,399.38
2018-07-07T14:36:39.187Z,376.88
2018-07-07T14:37:39.072Z,388.13
2018-07-07T14:39:31.758Z,376.88
2018-07-07T14:40:31.660Z,382.50
2018-07-07T14:42:24.377Z,376.88
2018-07-07T14:43:24.255Z,376.88
2018-07-07T14:45:16.996Z,371.25
2018-07-07T14:46:16.859Z,365.63
2018-07-07T14:48:09.573Z,371.25
2018-07-07T14:49:09.453Z,371.25
2018-07-07T14:51:02.168Z,371.25
2018-07-07T14:52:02.051Z,371.25
2018-07-07T14:53:54.755Z,371.25
2018-07-07T14:54:54.655Z,371.25
2018-07-07T14:56:47.365Z,360.00
2018-07-07T14:57:47.249Z,365.63
2018-07-07T14:59:39.940Z,360.00
2018-07-07T15:00:39.847Z,354.38
2018-07-07T15:02:32.558Z,354.38
2018-07-07T15:03:32.441Z,354.38
2018-07-07T15:05:25.138Z,365.63
2018-07-07T15:06:25.036Z,365.63
2018-07-07T15:08:17.743Z,365.63
2018-07-07T15:09:17.631Z,354.38
2018-07-07T15:11:10.324Z,354.38
2018-07-07T15:12:10.222Z,348.75
2018-07-07T15:14:02.932Z,360.00
2018-07-07T15:15:02.819Z,348.75
2018-07-07T15:16:55.513Z,354.38
2018-07-07T15:17:55.410Z,354.38
2018-07-07T15:19:48.124Z,360.00
2018-07-07T15:20:48.006Z,360.00
2018-07-07T15:22:40.824Z,360.00
2018-07-07T15:23:40.601Z,360.00
2018-07-07T15:25:33.296Z,360.00
2018-07-07T15:26:33.194Z,354.38
2018-07-07T15:28:25.912Z,354.38
2018-07-07T15:29:25.792Z,365.63
2018-07-07T15:31:18.483Z,343.13
2018-07-07T15:32:18.390Z,348.75
2018-07-07T15:34:11.102Z,360.00
2018-07-07T15:35:10.979Z,360.00
2018-07-07T15:37:03.686Z,354.38
2018-07-07T15:38:03.585Z,360.00
2018-07-07T15:39:56.296Z,354.38
2018-07-07T15:40:56.181Z,331.88
2018-07-07T15:42:48.872Z,348.75
2018-07-07T15:43:48.772Z,371.25
2018-07-07T15:45:41.483Z,393.75
2018-07-07T15:46:41.364Z,393.75
2018-07-07T15:48:34.056Z,405.00
2018-07-07T15:49:33.962Z,416.25
2018-07-07T15:51:26.714Z,433.13
2018-07-07T15:52:26.561Z,433.13
2018-07-07T15:54:19.255Z,433.13
2018-07-07T15:55:19.153Z,433.13
2018-07-07T15:57:11.930Z,444.38
2018-07-07T15:58:11.748Z,444.38
2018-07-07T16:00:04.444Z,438.75
2018-07-07T16:01:04.344Z,438.75
2018-07-07T16:02:57.055Z,433.13
2018-07-07T16:03:56.946Z,427.50
2018-07-07T16:05:49.643Z,365.63
2018-07-07T16:06:49.544Z,382.50
2018-07-07T16:08:42.250Z,410.63
2018-07-07T16:09:42.141Z,416.25
2018-07-07T16:11:34.853Z,416.25
2018-07-07T16:12:34.732Z,416.25
2018-07-07T16:14:27.430Z,421.88
2018-07-07T16:15:27.331Z,421.88
2018-07-07T16:17:20.047Z,416.25
2018-07-07T16:18:19.932Z,405.00
2018-07-07T16:20:12.622Z,399.38
2018-07-07T16:21:12.529Z,405.00
2018-07-07T16:23:05.236Z,405.00
2018-07-07T16:24:05.121Z,405.00
2018-07-07T16:25:57.828Z,421.88
2018-07-07T16:26:57.720Z,427.50
2018-07-07T16:28:50.435Z,438.75
2018-07-07T16:29:50.320Z,421.88
2018-07-07T16:31:43.011Z,399.38
2018-07-07T16:32:42.917Z,388.13
2018-07-07T16:34:35.655Z,371.25
2018-07-07T16:35:35.525Z,371.25
2018-07-07T16:37:28.244Z,354.38
2018-07-07T16:38:28.121Z,360.00
2018-07-07T16:40:20.811Z,354.38
2018-07-07T16:41:20.714Z,354.38
2018-07-07T16:43:13.417Z,365.63
2018-07-07T16:44:13.304Z,354.38
2018-07-07T16:46:06.037Z,365.63
2018-07-07T16:47:05.900Z,376.88
2018-07-07T16:48:58.623Z,376.88
2018-07-07T16:49:58.509Z,382.50
2018-07-07T16:51:51.202Z,376.88
2018-07-07T16:52:51.101Z,382.50
2018-07-07T16:54:44.807Z,382.50
2018-07-07T16:55:44.696Z,376.88
2018-07-07T16:57:37.381Z,365.63
2018-07-07T16:58:37.289Z,365.63
2018-07-07T17:00:30.088Z,337.50
2018-07-07T17:01:29.881Z,348.75
2018-07-07T17:03:22.607Z,343.13
2018-07-07T17:04:22.500Z,337.50
2018-07-07T17:06:15.220Z,315.00
2018-07-07T17:07:15.101Z,348.75
2018-07-07T17:09:07.799Z,348.75
2018-07-07T17:10:07.692Z,343.13
2018-07-07T17:12:00.408Z,337.50
2018-07-07T17:13:00.296Z,337.50
2018-07-07T17:14:53.010Z,331.88
2018-07-07T17:15:52.884Z,331.88
2018-07-07T17:17:45.580Z,331.88
2018-07-07T17:18:45.479Z,320.63
2018-07-07T17:20:38.193Z,315.00
2018-07-07T17:21:38.069Z,309.38
2018-07-07T17:23:30.773Z,315.00
2018-07-07T17:24:30.673Z,326.25
2018-07-07T17:26:23.384Z,326.25
2018-07-07T17:27:23.263Z,326.25
2018-07-07T17:29:15.964Z,309.38
2018-07-07T17:30:15.893Z,303.75
2018-07-07T17:32:08.573Z,303.75
2018-07-07T17:33:08.461Z,303.75
2018-07-07T17:35:01.151Z,309.38
2018-07-07T17:36:01.053Z,309.38
2018-07-07T17:37:53.768Z,309.38
2018-07-07T17:38:53.660Z,298.13
2018-07-07T17:40:46.361Z,286.88
2018-07-07T17:41:46.260Z,292.50
2018-07-07T17:43:39.937Z,281.25
2018-07-07T17:44:39.844Z,275.63
2018-07-07T17:46:32.553Z,264.38
2018-07-07T17:47:32.430Z,264.38
2018-07-07T17:49:25.235Z,264.38
2018-07-07T17:50:25.055Z,264.38
2018-07-07T17:52:17.763Z,258.75
2018-07-07T17:53:17.643Z,241.88
2018-07-07T17:55:10.342Z,230.63
2018-07-07T17:56:10.240Z,230.63
2018-07-07T17:58:02.951Z,219.38
2018-07-07T17:59:02.837Z,219.38
2018-07-07T18:00:55.524Z,219.38
2018-07-07T18:01:55.430Z,213.75
2018-07-07T18:03:48.156Z,213.75
2018-07-07T18:04:48.032Z,213.75
2018-07-07T18:06:40.725Z,213.75
2018-07-07T18:07:40.625Z,213.75
2018-07-07T18:09:33.337Z,213.75
2018-07-07T18:10:33.231Z,208.13
2018-07-07T18:12:25.910Z,202.50
2018-07-07T18:13:25.813Z,196.88
2018-07-07T18:15:18.521Z,191.25
2018-07-07T18:16:18.415Z,185.63
2018-07-07T18:18:11.095Z,174.38
2018-07-07T18:19:11.046Z,174.38
2018-07-07T18:21:03.861Z,163.13
2018-07-07T18:22:03.589Z,163.13
2018-07-07T18:23:56.286Z,157.50
2018-07-07T18:24:56.185Z,157.50
2018-07-07T18:26:48.901Z,151.88
2018-07-07T18:27:48.776Z,151.88
2018-07-07T18:29:41.468Z,146.25
2018-07-07T18:30:41.373Z,146.25
2018-07-07T18:32:34.080Z,146.25
2018-07-07T18:33:33.971Z,146.25
2018-07-07T18:35:26.684Z,140.63
2018-07-07T18:36:26.558Z,140.63
2018-07-07T18:38:19.333Z,140.63
2018-07-07T18:39:19.144Z,135.00
2018-07-07T18:41:12.827Z,135.00
2018-07-07T18:42:12.723Z,140.63
2018-07-07T18:44:05.438Z,135.00
2018-07-07T18:45:05.311Z,135.00
2018-07-07T18:46:58.005Z,135.00
2018-07-07T18:47:57.905Z,135.00
2018-07-07T18:49:50.609Z,129.38
2018-07-07T18:50:50.488Z,123.75
2018-07-07T18:52:43.256Z,123.75
2018-07-07T18:53:43.070Z,123.75
2018-07-07T18:55:35.915Z,118.13
2018-07-07T18:56:35.702Z,112.50
2018-07-07T18:58:28.386Z,106.88
2018-07-07T18:59:28.263Z,106.88
2018-07-07T19:01:20.960Z,106.88
2018-07-07T19:02:20.860Z,101.25
2018-07-07T19:04:13.569Z,95.63
2018-07-07T19:05:13.449Z,95.63
2018-07-07T19:07:06.140Z,90.00
2018-07-07T19:08:06.039Z,90.00
2018-07-07T19:09:58.741Z,84.38
2018-07-07T19:10:58.629Z,84.38
2018-07-07T19:12:51.312Z,78.75
2018-07-07T19:13:51.217Z,73.13
2018-07-07T19:15:43.921Z,67.50
2018-07-07T19:16:43.798Z,67.50
2018-07-07T19:18:36.487Z,61.88
2018-07-07T19:19:36.382Z,56.25
2018-07-07T19:21:29.121Z,56.25
2018-07-07T19:22:28.974Z,50.63
2018-07-07T19:24:21.662Z,50.63
2018-07-07T19:25:21.561Z,45.00
2018-07-07T19:27:14.266Z,45.00
2018-07-07T19:28:14.145Z,39.38
2018-07-07T19:30:06.833Z,39.38
2018-07-07T19:31:06.734Z,39.38
2018-07-07T19:32:59.437Z,33.75
2018-07-07T19:33:59.315Z,33.75
2018-07-07T19:35:52.032Z,28.13
2018-07-07T19:36:51.904Z,28.13
2018-07-07T19:38:44.616Z,28.13
2018-07-07T19:39:44.518Z,22.50
2018-07-07T19:41:37.215Z,22.50
2018-07-07T19:42:37.099Z,22.50
2018-07-07T19:44:29.786Z,16.88
2018-07-07T19:45:29.681Z,16.88
2018-07-07T19:47:22.384Z,16.88
2018-07-07T19:48:22.267Z,11.25
2018-07-07T19:50:14.958Z,11.25
2018-07-07T19:51:14.852Z,11.25
2018-07-07T19:53:07.623Z,11.25
2018-07-07T19:54:07.502Z,11.25
2018-07-07T19:56:00.335Z,5.63
2018-07-07T19:57:00.088Z,5.63
2018-07-07T19:58:52.787Z,5.63
2018-07-07T19:59:52.670Z,5.63
2018-07-07T20:01:45.351Z,5.63
2018-07-07T20:02:45.251Z,5.63
2018-07-07T20:04:37.954Z,0.00
2018-07-07T20:05:37.830Z,0.00
2018-07-07T20:07:30.513Z,0.00
2018-07-07T20:08:30.413Z,0.00
2018-07-07T20:10:23.109Z,0.00
2018-07-07T20:11:22.992Z,0.00
2018-07-07T20:13:15.708Z,0.00
2018-07-07T20:14:15.575Z,0.00
2018-07-07T20:16:08.421Z,0.00
2018-07-07T20:17:08.170Z,0.00
2018-07-07T20:19:00.866Z,0.00
2018-07-07T20:20:00.756Z,0.00
2018-07-07T20:21:53.463Z,0.00
2018-07-07T20:22:53.347Z,0.00
2018-07-07T20:24:46.026Z,0.00
2018-07-07T20:25:45.919Z,0.00
2018-07-07T20:27:38.660Z,0.00
2018-07-07T20:28:38.642Z,0.00
2018-07-07T20:30:31.251Z,0.00
2018-07-07T20:31:31.115Z,0.00
2018-07-07T20:33:23.801Z,0.00
2018-07-07T20:34:23.697Z,0.00
2018-07-07T20:36:16.402Z,0.00
2018-07-07T20:37:16.276Z,0.00
2018-07-07T20:39:08.965Z,0.00
2018-07-07T20:40:08.862Z,0.00
2018-07-07T20:42:01.574Z,0.00
2018-07-07T20:43:01.716Z,0.00
2018-07-07T20:44:54.194Z,0.00
2018-07-07T20:45:54.087Z,0.00
2018-07-07T20:47:46.938Z,0.00
2018-07-07T20:48:46.671Z,0.00
2018-07-07T20:50:39.505Z,0.00
2018-07-07T20:51:39.350Z,0.00
2018-07-07T20:53:32.056Z,0.00
2018-07-07T20:54:31.933Z,0.00
2018-07-07T20:56:24.679Z,0.00
2018-07-07T20:57:24.514Z,0.00
2018-07-07T20:59:17.218Z,0.00
2018-07-07T21:00:17.117Z,0.00
2018-07-07T21:02:09.863Z,0.00
2018-07-07T21:03:09.702Z,0.00
2018-07-07T21:05:02.441Z,0.00
2018-07-07T21:06:02.337Z,0.00
2018-07-07T21:07:55.031Z,0.00
2018-07-07T21:08:54.912Z,0.00
2018-07-07T21:10:47.751Z,0.00
2018-07-07T21:11:47.487Z,0.00
2018-07-07T21:13:40.193Z,0.00
2018-07-07T21:14:40.071Z,0.00
2018-07-07T21:16:32.754Z,0.00
2018-07-07T21:17:32.648Z,0.00
2018-07-07T21:19:25.348Z,0.00
2018-07-07T21:20:25.228Z,0.00
2018-07-07T21:22:17.922Z,0.00
2018-07-07T21:23:17.844Z,0.00
2018-07-07T21:25:10.512Z,0.00
2018-07-07T21:26:10.861Z,0.00
2018-07-07T21:28:03.110Z,0.00
2018-07-07T21:29:02.971Z,0.00
2018-07-07T21:30:55.676Z,0.00
2018-07-07T21:31:55.553Z,0.00
2018-07-07T21:33:48.234Z,0.00
2018-07-07T21:34:48.124Z,0.00
2018-07-07T21:36:40.829Z,0.00
2018-07-07T21:37:40.705Z,0.00
2018-07-07T21:39:33.434Z,0.00
2018-07-07T21:40:33.602Z,0.00
2018-07-07T21:42:26.135Z,0.00
2018-07-07T21:43:26.160Z,0.00
2018-07-07T21:45:18.571Z,0.00
2018-07-07T21:46:18.452Z,0.00
2018-07-07T21:48:11.133Z,0.00
2018-07-07T21:49:11.026Z,0.00
2018-07-07T21:51:03.729Z,0.00
2018-07-07T21:52:03.626Z,0.00
2018-07-07T21:53:56.422Z,0.00
2018-07-07T21:54:56.206Z,0.00
2018-07-07T21:56:48.886Z,0.00
2018-07-07T21:57:48.763Z,0.00
2018-07-07T21:59:41.444Z,0.00
